Time;durP1;ratioP1;P1;durP2;ratioP2;P2;SDS_P1;SDS_P2;PMS_P1;PMS_P2;Temp;Humidity;BMP_temperature;BMP_pressure;BME280_temperature;BME280_humidity;BME280_pressure;Samples;Min_cycle;Max_cycle;Signal;HPM_P1;HPM_P2
2023/04/11 00:00:08;;;;;;;;;;;15.60;98.70;15.80;99790.00;;;;331231;29;95660;-88
2023/04/11 00:00:20;;;;;;;;;;;15.60;98.50;15.80;99784.00;;;;330809;29;93057;-88
2023/04/11 00:00:31;;;;;;;;;;;15.60;98.50;15.80;99788.00;;;;329955;29;95674;-88
2023/04/11 00:00:43;;;;;;;;;;;15.60;98.70;15.90;99782.00;;;;328420;29;91235;-88
2023/04/11 00:00:55;;;;;;;;;;;15.60;98.60;15.80;99775.00;;;;329915;29;94798;-88
2023/04/11 00:01:07;;;;;;;;;;;15.60;98.70;15.90;99784.00;;;;332061;29;92171;-88
2023/04/11 00:01:19;;;;;;;;;;;15.50;98.50;15.90;99782.00;;;;332346;29;95177;-88
2023/04/11 00:01:31;;;;;;;;;;;15.50;98.50;15.80;99793.00;;;;332052;29;92103;-88
2023/04/11 00:01:48;;;;;;;;;;;15.60;98.50;15.80;99785.00;;;;329949;29;94574;-88
2023/04/11 00:02:00;;;;;;;;;;;15.50;98.60;15.80;99779.00;;;;331063;29;91233;-88
2023/04/11 00:02:12;;;;;;;;;;;15.50;98.50;15.80;99786.00;;;;332620;29;94745;-88
2023/04/11 00:02:25;;;;;;;;;;;15.50;98.70;15.90;99785.00;;;;330850;29;92979;-88
2023/04/11 00:02:40;;;;;;;;;;;15.50;98.70;15.90;99784.00;;;;329925;29;97173;-88
2023/04/11 00:02:53;;;;;;;;;;;15.50;98.70;15.90;99786.00;;;;329650;29;92050;-88
2023/04/11 00:03:05;;;;;;;;;;;15.50;98.70;15.90;99785.00;;;;328550;29;93971;-88
2023/04/11 00:03:18;;;;;;;;;;;15.50;98.70;15.80;99784.00;;;;331017;29;91995;-88
2023/04/11 00:03:31;;;;;;;;;;;15.50;98.70;15.70;99787.00;;;;332448;29;95591;-88
2023/04/11 00:03:43;;;;;;;;;;;15.50;98.60;15.70;99784.00;;;;330926;29;91269;-88
2023/04/11 00:03:55;;;;;;;;;;;15.50;98.70;15.60;99775.00;;;;331414;29;93351;-89
2023/04/11 00:04:09;;;;;;;;;;;15.50;98.70;15.80;99776.00;;;;331112;29;91991;-88
2023/04/11 00:04:24;;;;;;;;;;;15.50;98.60;15.80;99780.00;;;;332383;29;96085;-88
2023/04/11 00:04:37;;;;;;;;;;;15.50;98.70;15.80;99776.00;;;;332237;29;92344;-88
2023/04/11 00:04:53;;;;;;;;;;;15.50;98.70;15.90;99783.00;;;;329646;29;95861;-88
2023/04/11 00:05:06;;;;;;;;;;;15.50;98.70;15.70;99783.00;;;;331020;29;92051;-88
2023/04/11 00:05:18;;;;;;;;;;;15.50;98.80;15.80;99781.00;;;;332542;29;96131;-88
2023/04/11 00:05:33;;;;;;;;;;;15.50;98.90;15.90;99783.00;;;;329774;29;91151;-88
2023/04/11 00:05:53;;;;;;;;;;;15.50;98.70;15.70;99782.00;;;;331255;29;94753;-88
2023/04/11 00:06:05;;;;;;;;;;;15.50;98.70;15.80;99774.00;;;;329918;29;92090;-88
2023/04/11 00:06:17;;;;;;;;;;;15.50;98.70;15.80;99780.00;;;;329880;29;96087;-88
2023/04/11 00:06:28;;;;;;;;;;;15.50;98.60;15.90;99777.00;;;;329756;29;91161;-88
2023/04/11 00:06:40;;;;;;;;;;;15.50;98.40;15.90;99781.00;;;;328760;29;94617;-88
2023/04/11 00:06:52;;;;;;;;;;;15.50;98.50;15.80;99769.00;;;;332144;29;93060;-88
2023/04/11 00:07:06;;;;;;;;;;;15.50;98.60;15.80;99772.00;;;;331401;29;96650;-88
2023/04/11 00:07:18;;;;;;;;;;;15.50;98.70;15.70;99767.00;;;;330025;29;91920;-89
2023/04/11 00:07:30;;;;;;;;;;;15.50;98.80;15.80;99769.00;;;;332477;29;94576;-88
2023/04/11 00:07:41;;;;;;;;;;;15.50;98.70;15.60;99769.00;;;;332282;29;91304;-88
2023/04/11 00:07:53;;;;;;;;;;;15.50;98.80;15.60;99771.00;;;;331232;29;94605;-88
2023/04/11 00:08:05;;;;;;;;;;;15.50;98.80;15.60;99773.00;;;;329920;29;91178;-87
2023/04/11 00:08:17;;;;;;;;;;;15.50;98.80;15.70;99773.00;;;;331021;29;95986;-88
2023/04/11 00:08:29;;;;;;;;;;;15.50;98.70;15.70;99780.00;;;;332251;29;92079;-88
2023/04/11 00:08:43;;;;;;;;;;;15.50;98.80;15.70;99768.00;;;;331147;29;95781;-88
2023/04/11 00:08:55;;;;;;;;;;;15.50;98.80;15.70;99772.00;;;;330949;29;93200;-89
2023/04/11 00:09:10;;;;;;;;;;;15.50;98.90;15.60;99774.00;;;;331260;29;94468;-88
2023/04/11 00:09:21;;;;;;;;;;;15.50;98.90;15.60;99785.00;;;;331037;29;91150;-88
2023/04/11 00:09:34;;;;;;;;;;;15.40;98.80;15.70;99783.00;;;;332272;29;96185;-88
2023/04/11 00:09:46;;;;;;;;;;;15.40;98.80;15.60;99779.00;;;;331181;29;92035;-88
2023/04/11 00:09:58;;;;;;;;;;;15.40;98.80;15.70;99784.00;;;;330031;29;94547;-88
2023/04/11 00:10:10;;;;;;;;;;;15.40;98.80;15.70;99788.00;;;;329808;29;91945;-88
2023/04/11 00:10:22;;;;;;;;;;;15.40;98.80;15.70;99785.00;;;;330137;29;95472;-88
2023/04/11 00:10:33;;;;;;;;;;;15.40;98.90;15.70;99779.00;;;;331226;29;91958;-88
2023/04/11 00:10:46;;;;;;;;;;;15.40;98.90;15.70;99774.00;;;;331518;29;95597;-88
2023/04/11 00:10:58;;;;;;;;;;;15.40;98.70;15.70;99776.00;;;;329930;29;93015;-88
2023/04/11 00:11:10;;;;;;;;;;;15.40;98.80;15.70;99780.00;;;;331547;29;93529;-88
2023/04/11 00:11:22;;;;;;;;;;;15.50;98.80;15.70;99776.00;;;;332440;29;92122;-88
2023/04/11 00:11:33;;;;;;;;;;;15.40;98.90;15.70;99781.00;;;;330233;29;93082;-88
2023/04/11 00:11:45;;;;;;;;;;;15.40;98.90;15.60;99774.00;;;;329842;29;91302;-88
2023/04/11 00:11:57;;;;;;;;;;;15.40;99.10;15.70;99776.00;;;;332783;29;94522;-88
2023/04/11 00:12:09;;;;;;;;;;;15.40;98.90;15.80;99776.00;;;;332572;29;92159;-89
2023/04/11 00:12:21;;;;;;;;;;;15.40;98.70;15.80;99780.00;;;;331410;29;93820;-89
2023/04/11 00:12:33;;;;;;;;;;;15.40;98.70;15.80;99779.00;;;;330897;29;92033;-88
2023/04/11 00:12:45;;;;;;;;;;;15.40;98.70;15.80;99778.00;;;;331500;29;92635;-88
2023/04/11 00:12:56;;;;;;;;;;;15.40;98.80;15.60;99781.00;;;;331360;29;92225;-88
2023/04/11 00:13:09;;;;;;;;;;;15.40;98.80;15.60;99784.00;;;;332717;29;96924;-87
2023/04/11 00:13:23;;;;;;;;;;;15.40;99.00;15.60;99778.00;;;;332583;29;91914;-88
2023/04/11 00:13:36;;;;;;;;;;;15.40;99.00;15.70;99780.00;;;;330123;29;95626;-88
2023/04/11 00:13:48;;;;;;;;;;;15.40;98.80;15.70;99777.00;;;;333870;29;91131;-87
2023/04/11 00:14:00;;;;;;;;;;;15.40;99.10;15.70;99777.00;;;;331354;29;96497;-87
2023/04/11 00:14:12;;;;;;;;;;;15.40;99.10;15.80;99781.00;;;;329950;29;91102;-88
2023/04/11 00:14:24;;;;;;;;;;;15.40;99.10;15.80;99778.00;;;;332933;29;96001;-88
2023/04/11 00:14:37;;;;;;;;;;;15.40;99.10;15.80;99785.00;;;;331203;29;91154;-88
2023/04/11 00:14:48;;;;;;;;;;;15.40;99.20;15.80;99788.00;;;;331391;29;96052;-87
2023/04/11 00:15:01;;;;;;;;;;;15.40;99.20;15.70;99785.00;;;;331098;29;92218;-88
2023/04/11 00:15:15;;;;;;;;;;;15.40;99.30;15.70;99784.00;;;;331581;29;96408;-88
2023/04/11 00:15:26;;;;;;;;;;;15.40;99.40;15.60;99788.00;;;;332491;29;91290;-88
2023/04/11 00:15:38;;;;;;;;;;;15.40;99.40;15.60;99784.00;;;;330033;29;94541;-87
2023/04/11 00:15:54;;;;;;;;;;;15.40;99.50;15.70;99793.00;;;;331095;29;92088;-88
2023/04/11 00:16:07;;;;;;;;;;;15.40;99.40;15.60;99788.00;;;;331559;29;93602;-88
2023/04/11 00:16:19;;;;;;;;;;;15.40;99.60;15.60;99788.00;;;;329715;29;92102;-88
2023/04/11 00:16:34;;;;;;;;;;;15.40;99.50;15.60;99787.00;;;;332809;29;95548;-88
2023/04/11 00:16:48;;;;;;;;;;;15.40;99.60;15.60;99794.00;;;;331156;29;92055;-88
2023/04/11 00:17:00;;;;;;;;;;;15.40;99.70;15.60;99792.00;;;;330259;29;94738;-88
2023/04/11 00:17:13;;;;;;;;;;;15.40;99.60;15.60;99788.00;;;;331154;29;92945;-87
2023/04/11 00:17:27;;;;;;;;;;;15.40;99.70;15.60;99792.00;;;;330187;29;96625;-88
2023/04/11 00:17:40;;;;;;;;;;;15.40;99.70;15.60;99799.00;;;;329949;29;92113;-88
2023/04/11 00:17:53;;;;;;;;;;;15.40;99.80;15.60;99788.00;;;;332651;29;95920;-87
2023/04/11 00:18:06;;;;;;;;;;;15.40;99.90;15.50;99790.00;;;;332474;29;91844;-87
2023/04/11 00:18:17;;;;;;;;;;;15.40;99.90;15.50;99787.00;;;;332713;29;92787;-87
2023/04/11 00:18:29;;;;;;;;;;;15.40;99.90;15.60;99791.00;;;;331321;29;91987;-88
2023/04/11 00:18:44;;;;;;;;;;;15.40;99.90;15.60;99785.00;;;;331388;29;94535;-87
2023/04/11 00:18:55;;;;;;;;;;;15.40;99.80;15.60;99791.00;;;;332542;29;92058;-88
2023/04/11 00:19:11;;;;;;;;;;;15.40;99.90;15.70;99789.00;;;;330065;29;94909;-89
2023/04/11 00:19:24;;;;;;;;;;;15.40;99.90;15.70;99785.00;;;;332471;29;92830;-88
2023/04/11 00:19:36;;;;;;;;;;;15.40;99.90;15.60;99781.00;;;;334001;29;96273;-88
2023/04/11 00:19:48;;;;;;;;;;;15.40;99.90;15.60;99784.00;;;;331143;29;91985;-88
2023/04/11 00:20:06;;;;;;;;;;;15.30;99.90;15.60;99783.00;;;;330154;29;95883;-87
2023/04/11 00:20:18;;;;;;;;;;;15.30;99.90;15.70;99788.00;;;;331199;29;91161;-88
2023/04/11 00:20:31;;;;;;;;;;;15.30;99.90;15.70;99782.00;;;;334031;29;96484;-88
2023/04/11 00:20:42;;;;;;;;;;;15.40;99.90;15.60;99788.00;;;;329738;29;92152;-88
2023/04/11 00:20:54;;;;;;;;;;;15.30;99.90;15.70;99781.00;;;;330082;29;94546;-88
2023/04/11 00:21:07;;;;;;;;;;;15.40;99.90;15.80;99784.00;;;;331272;29;92133;-86
2023/04/11 00:21:19;;;;;;;;;;;15.40;99.90;15.70;99787.00;;;;330155;29;94874;-87
2023/04/11 00:21:31;;;;;;;;;;;15.40;99.90;15.70;99779.00;;;;329713;29;93089;-88
2023/04/11 00:21:44;;;;;;;;;;;15.40;99.90;15.60;99779.00;;;;330098;29;95696;-87
2023/04/11 00:21:59;;;;;;;;;;;15.40;99.90;15.60;99786.00;;;;331261;29;92004;-88
2023/04/11 00:22:12;;;;;;;;;;;15.40;99.90;15.50;99780.00;;;;331342;29;95920;-87
2023/04/11 00:22:26;;;;;;;;;;;15.40;99.90;15.50;99770.00;;;;332536;29;91174;-86
2023/04/11 00:22:38;;;;;;;;;;;15.30;99.90;15.50;99777.00;;;;330066;29;93850;-88
2023/04/11 00:22:52;;;;;;;;;;;15.30;99.90;15.50;99777.00;;;;330002;29;91248;-87
2023/04/11 00:23:04;;;;;;;;;;;15.30;99.90;15.50;99782.00;;;;331244;29;93725;-87
2023/04/11 00:23:17;;;;;;;;;;;15.30;99.90;15.50;99779.00;;;;332533;29;92067;-89
2023/04/11 00:23:29;;;;;;;;;;;15.30;99.90;15.50;99784.00;;;;331408;29;93187;-88
2023/04/11 00:23:41;;;;;;;;;;;15.30;99.90;15.50;99780.00;;;;332573;29;93018;-87
2023/04/11 00:23:56;;;;;;;;;;;15.30;99.90;15.50;99788.00;;;;334088;29;95521;-88
2023/04/11 00:24:07;;;;;;;;;;;15.30;99.90;15.50;99787.00;;;;331373;29;92069;-87
2023/04/11 00:24:19;;;;;;;;;;;15.30;99.90;15.40;99789.00;;;;330155;29;94671;-88
2023/04/11 00:24:31;;;;;;;;;;;15.30;99.90;15.50;99787.00;;;;333630;29;92019;-88
2023/04/11 00:24:44;;;;;;;;;;;15.20;99.90;15.50;99785.00;;;;330154;29;95676;-87
2023/04/11 00:24:56;;;;;;;;;;;15.30;99.90;15.60;99780.00;;;;329868;29;92115;-88
2023/04/11 00:25:08;;;;;;;;;;;15.20;99.90;15.50;99780.00;;;;333985;29;95905;-88
2023/04/11 00:25:20;;;;;;;;;;;15.30;99.90;15.60;99787.00;;;;329943;29;92027;-88
2023/04/11 00:25:32;;;;;;;;;;;15.30;99.90;15.70;99784.00;;;;330063;29;94618;-88
2023/04/11 00:25:43;;;;;;;;;;;15.30;99.90;15.70;99787.00;;;;329900;29;92959;-88
2023/04/11 00:25:55;;;;;;;;;;;15.30;99.90;15.60;99780.00;;;;331327;29;94664;-87
2023/04/11 00:26:07;;;;;;;;;;;15.30;99.90;15.70;99782.00;;;;332349;29;92058;-88
2023/04/11 00:26:22;;;;;;;;;;;15.30;99.90;15.70;99791.00;;;;331453;29;95298;-87
2023/04/11 00:26:34;;;;;;;;;;;15.30;99.90;15.50;99787.00;;;;330035;29;91885;-88
2023/04/11 00:26:46;;;;;;;;;;;15.30;99.90;15.50;99784.00;;;;332650;29;93498;-87
2023/04/11 00:26:58;;;;;;;;;;;15.30;99.90;15.50;99791.00;;;;329900;29;91264;-88
2023/04/11 00:27:10;;;;;;;;;;;15.30;99.90;15.50;99788.00;;;;332889;29;93660;-87
2023/04/11 00:27:22;;;;;;;;;;;15.30;99.90;15.50;99793.00;;;;332527;29;92011;-89
2023/04/11 00:27:34;;;;;;;;;;;15.30;99.90;15.50;99789.00;;;;331433;29;95898;-89
2023/04/11 00:27:46;;;;;;;;;;;15.30;99.90;15.50;99784.00;;;;329975;29;92019;-88
2023/04/11 00:27:58;;;;;;;;;;;15.30;99.90;15.50;99783.00;;;;329104;29;93603;-88
2023/04/11 00:28:10;;;;;;;;;;;15.20;99.90;15.40;99790.00;;;;329912;29;92022;-89
2023/04/11 00:28:21;;;;;;;;;;;15.20;99.90;15.50;99795.00;;;;330009;29;95793;-89
2023/04/11 00:28:33;;;;;;;;;;;15.20;99.90;15.40;99788.00;;;;331237;29;92042;-89
2023/04/11 00:28:45;;;;;;;;;;;15.20;99.90;15.50;99788.00;;;;330315;29;94628;-89
2023/04/11 00:28:57;;;;;;;;;;;15.20;99.90;15.60;99777.00;;;;331188;29;91953;-89
2023/04/11 00:29:10;;;;;;;;;;;15.20;99.90;15.50;99788.00;;;;331451;29;94718;-89
2023/04/11 00:29:21;;;;;;;;;;;15.20;99.90;15.40;99786.00;;;;332598;29;91298;-89
2023/04/11 00:29:35;;;;;;;;;;;15.20;99.90;15.40;99797.00;;;;331440;29;95782;-88
2023/04/11 00:29:47;;;;;;;;;;;15.20;99.90;15.50;99793.00;;;;331230;29;92320;-89
2023/04/11 00:30:00;;;;;;;;;;;15.20;99.90;15.40;99795.00;;;;331262;29;96639;-89
2023/04/11 00:30:12;;;;;;;;;;;15.20;99.90;15.50;99787.00;;;;331166;29;92183;-89
2023/04/11 00:30:24;;;;;;;;;;;15.20;99.90;15.50;99786.00;;;;330155;29;95844;-89
2023/04/11 00:30:37;;;;;;;;;;;15.20;99.90;15.50;99788.00;;;;331254;29;91227;-88
2023/04/11 00:30:49;;;;;;;;;;;15.20;99.90;15.40;99789.00;;;;330118;29;95626;-89
2023/04/11 00:31:01;;;;;;;;;;;15.20;99.90;15.50;99786.00;;;;331208;29;91939;-89
2023/04/11 00:31:13;;;;;;;;;;;15.20;99.90;15.50;99788.00;;;;334143;29;94885;-88
2023/04/11 00:31:25;;;;;;;;;;;15.20;99.90;15.50;99791.00;;;;331063;29;92233;-89
2023/04/11 00:31:36;;;;;;;;;;;15.20;99.90;15.60;99784.00;;;;330238;29;95082;-88
2023/04/11 00:31:48;;;;;;;;;;;15.20;99.90;15.50;99788.00;;;;332414;29;93038;-88
2023/04/11 00:32:00;;;;;;;;;;;15.20;99.90;15.50;99788.00;;;;331449;29;95456;-89
2023/04/11 00:32:12;;;;;;;;;;;15.20;99.90;15.50;99784.00;;;;330051;29;92228;-89
2023/04/11 00:32:24;;;;;;;;;;;15.20;99.90;15.50;99792.00;;;;330154;29;95782;-89
2023/04/11 00:32:36;;;;;;;;;;;15.20;99.90;15.50;99794.00;;;;331331;29;91184;-89
2023/04/11 00:32:48;;;;;;;;;;;15.20;99.90;15.50;99787.00;;;;329988;29;95553;-89
2023/04/11 00:33:00;;;;;;;;;;;15.20;99.90;15.50;99789.00;;;;332687;29;91268;-89
2023/04/11 00:33:12;;;;;;;;;;;15.20;99.90;15.50;99788.00;;;;331433;29;95678;-89
2023/04/11 00:33:24;;;;;;;;;;;15.20;99.90;15.50;99789.00;;;;332252;29;91940;-89
2023/04/11 00:33:36;;;;;;;;;;;15.20;99.90;15.50;99789.00;;;;331263;29;96226;-89
2023/04/11 00:33:51;;;;;;;;;;;15.20;99.90;15.40;99795.00;;;;332617;29;92988;-89
2023/04/11 00:34:02;;;;;;;;;;;15.20;99.90;15.40;99797.00;;;;328853;29;96972;-89
2023/04/11 00:34:14;;;;;;;;;;;15.20;99.90;15.30;99791.00;;;;328784;29;92199;-89
2023/04/11 00:34:26;;;;;;;;;;;15.20;99.90;15.30;99794.00;;;;332689;29;96182;-89
2023/04/11 00:34:40;;;;;;;;;;;15.20;99.90;15.40;99785.00;;;;331199;29;92069;-89
2023/04/11 00:34:51;;;;;;;;;;;15.20;99.90;15.60;99794.00;;;;328907;29;92291;-89
2023/04/11 00:35:04;;;;;;;;;;;15.20;99.90;15.60;99788.00;;;;332660;29;91208;-88
2023/04/11 00:35:16;;;;;;;;;;;15.20;99.90;15.60;99788.00;;;;330230;29;92553;-88
2023/04/11 00:35:28;;;;;;;;;;;15.30;99.90;15.50;99784.00;;;;331104;29;92013;-89
2023/04/11 00:35:40;;;;;;;;;;;15.30;99.90;15.50;99792.00;;;;333994;29;96049;-88
2023/04/11 00:35:52;;;;;;;;;;;15.20;99.90;15.50;99797.00;;;;331514;29;92042;-89
2023/04/11 00:36:04;;;;;;;;;;;15.30;99.90;15.50;99793.00;;;;331359;29;94991;-89
2023/04/11 00:36:16;;;;;;;;;;;15.30;99.90;15.50;99789.00;;;;331144;29;92174;-89
2023/04/11 00:36:28;;;;;;;;;;;15.30;99.90;15.50;99796.00;;;;330090;29;93783;-88
2023/04/11 00:36:40;;;;;;;;;;;15.20;99.90;15.40;99795.00;;;;331006;29;92023;-89
2023/04/11 00:36:53;;;;;;;;;;;15.30;99.90;15.50;99786.00;;;;331366;29;94615;-89
2023/04/11 00:37:05;;;;;;;;;;;15.20;99.90;15.50;99799.00;;;;328658;29;92020;-89
2023/04/11 00:37:20;;;;;;;;;;;15.20;99.90;15.40;99786.00;;;;331385;29;95845;-88
2023/04/11 00:37:34;;;;;;;;;;;15.20;99.90;15.40;99788.00;;;;332342;29;92049;-89
2023/04/11 00:37:48;;;;;;;;;;;15.20;99.90;15.40;99787.00;;;;331460;29;95764;-90
2023/04/11 00:38:01;;;;;;;;;;;15.20;99.90;15.40;99794.00;;;;329998;29;92972;-86
2023/04/11 00:38:13;;;;;;;;;;;15.20;99.90;15.50;99790.00;;;;330074;29;96714;-89
2023/04/11 00:38:26;;;;;;;;;;;15.20;99.90;15.40;99786.00;;;;331264;29;91937;-88
2023/04/11 00:38:38;;;;;;;;;;;15.20;99.90;15.40;99798.00;;;;330136;29;96339;-89
2023/04/11 00:38:49;;;;;;;;;;;15.20;99.90;15.40;99793.00;;;;332332;29;92496;-89
2023/04/11 00:39:01;;;;;;;;;;;15.20;99.90;15.40;99794.00;;;;331525;29;94196;-89
2023/04/11 00:39:17;;;;;;;;;;;15.20;99.90;15.40;99788.00;;;;329910;29;92046;-89
2023/04/11 00:39:32;;;;;;;;;;;15.20;99.90;15.50;99792.00;;;;331162;29;94892;-89
2023/04/11 00:39:44;;;;;;;;;;;15.20;99.90;15.50;99788.00;;;;329981;29;92115;-90
2023/04/11 00:39:56;;;;;;;;;;;15.20;99.90;15.50;99798.00;;;;332422;29;95194;-89
2023/04/11 00:40:10;;;;;;;;;;;15.20;99.90;15.50;99792.00;;;;333349;29;93107;-89
2023/04/11 00:40:22;;;;;;;;;;;15.20;99.90;15.50;99797.00;;;;331484;29;97444;-89
2023/04/11 00:40:33;;;;;;;;;;;15.20;99.90;15.50;99788.00;;;;331221;29;91236;-89
2023/04/11 00:40:45;;;;;;;;;;;15.20;99.90;15.40;99792.00;;;;331464;29;95917;-89
2023/04/11 00:40:57;;;;;;;;;;;15.20;99.90;15.40;99793.00;;;;333629;29;91438;-89
2023/04/11 00:41:09;;;;;;;;;;;15.20;99.90;15.40;99793.00;;;;331608;29;94951;-90
2023/04/11 00:41:21;;;;;;;;;;;15.20;99.90;15.50;99792.00;;;;332540;29;91356;-89
2023/04/11 00:41:33;;;;;;;;;;;15.20;99.90;15.50;99793.00;;;;331398;29;94834;-89
2023/04/11 00:41:45;;;;;;;;;;;15.20;99.90;15.50;99790.00;;;;329966;29;91159;-90
2023/04/11 00:42:05;;;;;;;;;;;15.20;99.90;15.50;99781.00;;;;331272;29;94049;-89
2023/04/11 00:42:18;;;;;;;;;;;15.20;99.90;15.50;99777.00;;;;329801;29;92927;-89
2023/04/11 00:42:30;;;;;;;;;;;15.20;99.90;15.50;99782.00;;;;331209;29;95379;-89
2023/04/11 00:42:42;;;;;;;;;;;15.20;99.90;15.50;99781.00;;;;332368;29;92065;-89
2023/04/11 00:42:55;;;;;;;;;;;15.20;99.90;15.60;99791.00;;;;330376;29;95500;-89
2023/04/11 00:43:07;;;;;;;;;;;15.20;99.90;15.70;99782.00;;;;331388;29;92122;-89
2023/04/11 00:43:19;;;;;;;;;;;15.20;99.90;15.70;99783.00;;;;331447;29;94547;-90
2023/04/11 00:43:31;;;;;;;;;;;15.30;99.90;15.60;99787.00;;;;332518;29;91929;-89
2023/04/11 00:43:43;;;;;;;;;;;15.30;99.90;15.60;99780.00;;;;331419;29;95561;-90
2023/04/11 00:43:56;;;;;;;;;;;15.30;99.90;15.60;99786.00;;;;328538;29;92133;-90
2023/04/11 00:44:09;;;;;;;;;;;15.30;99.90;15.60;99780.00;;;;331407;29;95061;-88
2023/04/11 00:44:21;;;;;;;;;;;15.30;99.90;15.70;99786.00;;;;331451;29;92948;-89
2023/04/11 00:44:34;;;;;;;;;;;15.30;99.90;15.60;99782.00;;;;330074;29;96255;-88
2023/04/11 00:44:45;;;;;;;;;;;15.30;99.90;15.60;99790.00;;;;331109;29;91303;-89
2023/04/11 00:44:57;;;;;;;;;;;15.30;99.90;15.60;99781.00;;;;332985;29;93799;-88
2023/04/11 00:45:09;;;;;;;;;;;15.30;99.90;15.60;99785.00;;;;329941;29;91990;-89
2023/04/11 00:45:21;;;;;;;;;;;15.30;99.90;15.60;99783.00;;;;331487;29;95603;-89
2023/04/11 00:45:33;;;;;;;;;;;15.30;99.90;15.60;99783.00;;;;331287;29;91214;-88
2023/04/11 00:45:45;;;;;;;;;;;15.30;99.90;15.60;99784.00;;;;332571;29;95696;-89
2023/04/11 00:45:57;;;;;;;;;;;15.30;99.90;15.70;99787.00;;;;332513;29;91861;-88
2023/04/11 00:46:09;;;;;;;;;;;15.30;99.90;15.70;99786.00;;;;330038;29;95793;-90
2023/04/11 00:46:21;;;;;;;;;;;15.30;99.90;15.70;99780.00;;;;330990;29;93076;-89
2023/04/11 00:46:34;;;;;;;;;;;15.30;99.90;15.60;99785.00;;;;332448;29;97095;-89
2023/04/11 00:46:46;;;;;;;;;;;15.30;99.90;15.60;99780.00;;;;331236;29;91163;-89
2023/04/11 00:46:58;;;;;;;;;;;15.30;99.90;15.60;99778.00;;;;332652;29;94739;-88
2023/04/11 00:47:10;;;;;;;;;;;15.30;99.90;15.60;99779.00;;;;330007;29;92050;-89
2023/04/11 00:47:22;;;;;;;;;;;15.30;99.90;15.60;99788.00;;;;331444;29;94584;-88
2023/04/11 00:47:34;;;;;;;;;;;15.30;99.90;15.70;99783.00;;;;329867;29;92128;-89
2023/04/11 00:47:46;;;;;;;;;;;15.30;99.90;15.60;99788.00;;;;332972;29;95948;-88
2023/04/11 00:47:57;;;;;;;;;;;15.30;99.90;15.50;99779.00;;;;331495;29;91141;-88
2023/04/11 00:48:10;;;;;;;;;;;15.30;99.90;15.50;99791.00;;;;331540;29;92400;-88
2023/04/11 00:48:23;;;;;;;;;;;15.30;99.90;15.50;99778.00;;;;332471;29;93113;-88
2023/04/11 00:48:35;;;;;;;;;;;15.30;99.90;15.60;99776.00;;;;330176;29;95807;-88
2023/04/11 00:48:47;;;;;;;;;;;15.30;99.90;15.50;99785.00;;;;329906;29;91262;-89
2023/04/11 00:48:59;;;;;;;;;;;15.30;99.90;15.50;99783.00;;;;331283;29;95588;-89
2023/04/11 00:49:11;;;;;;;;;;;15.30;99.90;15.50;99780.00;;;;332702;29;91270;-89
2023/04/11 00:49:23;;;;;;;;;;;15.30;99.90;15.40;99788.00;;;;331314;29;94394;-88
2023/04/11 00:49:35;;;;;;;;;;;15.30;99.90;15.30;99782.00;;;;331050;29;92089;-88
2023/04/11 00:49:47;;;;;;;;;;;15.30;99.90;15.50;99786.00;;;;331749;29;92141;-88
2023/04/11 00:49:58;;;;;;;;;;;15.30;99.90;15.50;99780.00;;;;329904;29;91164;-88
2023/04/11 00:50:12;;;;;;;;;;;15.30;99.90;15.40;99774.00;;;;331608;29;95285;-87
2023/04/11 00:50:25;;;;;;;;;;;15.30;99.90;15.50;99779.00;;;;332356;29;92895;-88
2023/04/11 00:50:39;;;;;;;;;;;15.30;99.90;15.60;99779.00;;;;329085;29;95713;-89
2023/04/11 00:50:51;;;;;;;;;;;15.30;99.90;15.60;99778.00;;;;331122;29;92326;-88
2023/04/11 00:51:03;;;;;;;;;;;15.30;99.90;15.50;99788.00;;;;331419;29;94583;-88
2023/04/11 00:51:14;;;;;;;;;;;15.30;99.90;15.40;99788.00;;;;328658;29;92025;-88
2023/04/11 00:51:27;;;;;;;;;;;15.30;99.90;15.50;99787.00;;;;330177;29;95694;-88
2023/04/11 00:51:39;;;;;;;;;;;15.30;99.90;15.50;99786.00;;;;332485;29;92033;-88
2023/04/11 00:51:52;;;;;;;;;;;15.30;99.90;15.50;99788.00;;;;331389;29;96120;-88
2023/04/11 00:52:04;;;;;;;;;;;15.20;99.90;15.50;99792.00;;;;332420;29;92042;-88
2023/04/11 00:52:16;;;;;;;;;;;15.30;99.90;15.40;99789.00;;;;332552;29;91992;-88
2023/04/11 00:52:28;;;;;;;;;;;15.30;99.90;15.40;99786.00;;;;332354;29;93042;-88
2023/04/11 00:52:40;;;;;;;;;;;15.20;99.90;15.40;99774.00;;;;331458;29;96569;-86
2023/04/11 00:52:52;;;;;;;;;;;15.20;99.90;15.40;99786.00;;;;331152;29;92019;-88
2023/04/11 00:53:04;;;;;;;;;;;15.20;99.90;15.40;99785.00;;;;332734;29;95718;-88
2023/04/11 00:53:17;;;;;;;;;;;15.20;99.90;15.50;99788.00;;;;331334;29;92059;-88
2023/04/11 00:53:31;;;;;;;;;;;15.20;99.90;15.50;99783.00;;;;331417;29;95018;-88
2023/04/11 00:53:44;;;;;;;;;;;15.20;99.90;15.50;99788.00;;;;332410;29;92148;-88
2023/04/11 00:53:56;;;;;;;;;;;15.20;99.90;15.60;99784.00;;;;332912;29;95715;-88
2023/04/11 00:54:08;;;;;;;;;;;15.20;99.90;15.60;99783.00;;;;329911;29;91938;-88
2023/04/11 00:54:20;;;;;;;;;;;15.20;99.90;15.60;99781.00;;;;331362;29;95597;-88
2023/04/11 00:54:32;;;;;;;;;;;15.30;99.90;15.60;99791.00;;;;333753;29;92994;-88
2023/04/11 00:54:44;;;;;;;;;;;15.20;99.90;15.50;99792.00;;;;331272;29;95900;-88
2023/04/11 00:54:56;;;;;;;;;;;15.30;99.90;15.50;99792.00;;;;329715;29;92061;-88
2023/04/11 00:55:08;;;;;;;;;;;15.30;99.90;15.50;99791.00;;;;331407;29;94662;-88
2023/04/11 00:55:20;;;;;;;;;;;15.20;99.90;15.50;99788.00;;;;331207;29;91111;-89
2023/04/11 00:55:32;;;;;;;;;;;15.30;99.90;15.40;99788.00;;;;331318;29;93449;-88
2023/04/11 00:55:44;;;;;;;;;;;15.30;99.90;15.40;99783.00;;;;333653;29;92022;-88
2023/04/11 00:55:56;;;;;;;;;;;15.20;99.90;15.50;99782.00;;;;330187;29;96074;-88
2023/04/11 00:56:08;;;;;;;;;;;15.20;99.90;15.50;99795.00;;;;329833;29;92145;-88
2023/04/11 00:56:21;;;;;;;;;;;15.30;99.90;15.60;99783.00;;;;332760;29;94681;-88
2023/04/11 00:56:32;;;;;;;;;;;15.20;99.90;15.50;99780.00;;;;329502;29;93084;-88
2023/04/11 00:56:44;;;;;;;;;;;15.20;99.90;15.50;99782.00;;;;332705;29;97015;-88
2023/04/11 00:56:57;;;;;;;;;;;15.20;99.90;15.50;99775.00;;;;331103;29;92153;-88
2023/04/11 00:57:09;;;;;;;;;;;15.20;99.90;15.40;99775.00;;;;328825;29;94623;-88
2023/04/11 00:57:24;;;;;;;;;;;15.20;99.90;15.40;99778.00;;;;330104;29;92038;-88
2023/04/11 00:57:37;;;;;;;;;;;15.20;99.90;15.40;99774.00;;;;331298;29;94821;-88
2023/04/11 00:57:48;;;;;;;;;;;15.20;99.90;15.50;99775.00;;;;329679;29;92104;-88
2023/04/11 00:58:02;;;;;;;;;;;15.20;99.90;15.50;99776.00;;;;330256;29;95603;-90
2023/04/11 00:58:15;;;;;;;;;;;15.20;99.90;15.50;99769.00;;;;329986;29;92095;-88
2023/04/11 00:58:27;;;;;;;;;;;15.20;99.90;15.60;99774.00;;;;331346;29;94489;-89
2023/04/11 00:58:39;;;;;;;;;;;15.20;99.90;15.60;99772.00;;;;331204;29;92991;-89
2023/04/11 00:58:52;;;;;;;;;;;15.20;99.90;15.70;99772.00;;;;331305;29;96496;-89
2023/04/11 00:59:04;;;;;;;;;;;15.20;99.90;15.70;99776.00;;;;332448;29;91288;-89
2023/04/11 00:59:16;;;;;;;;;;;15.20;99.90;15.80;99779.00;;;;333996;29;96041;-88
2023/04/11 00:59:28;;;;;;;;;;;15.20;99.90;15.70;99766.00;;;;331364;29;92061;-88
2023/04/11 00:59:40;;;;;;;;;;;15.30;99.90;15.70;99772.00;;;;330142;29;94471;-89
2023/04/11 00:59:52;;;;;;;;;;;15.20;99.90;15.70;99780.00;;;;332580;29;92037;-87
2023/04/11 01:00:05;;;;;;;;;;;15.30;99.90;15.70;99767.00;;;;331421;29;94521;-89
2023/04/11 01:00:22;;;;;;;;;;;15.20;99.90;15.70;99765.00;;;;331216;29;92106;-87
2023/04/11 01:00:34;;;;;;;;;;;15.30;99.90;15.60;99770.00;;;;330216;29;94942;-89
2023/04/11 01:00:48;;;;;;;;;;;15.30;99.90;15.60;99776.00;;;;327460;29;92999;-89
2023/04/11 01:01:00;;;;;;;;;;;15.30;99.90;15.60;99768.00;;;;332570;29;96803;-89
2023/04/11 01:01:13;;;;;;;;;;;15.30;99.90;15.60;99767.00;;;;331065;29;91982;-89
2023/04/11 01:01:25;;;;;;;;;;;15.30;99.90;15.70;99774.00;;;;332615;29;94889;-89
2023/04/11 01:01:37;;;;;;;;;;;15.30;99.90;15.80;99767.00;;;;329858;29;91291;-89
2023/04/11 01:01:51;;;;;;;;;;;15.20;99.90;15.70;99771.00;;;;331408;29;93329;-88